sensor_id;sensor_type;location;lat;lon;timestamp;P1;durP1;ratioP1;P2;durP2;ratioP2
24096;SDS011;12275;48.550;12.132;2022-08-21T00:01:05;11.90;;;8.75;;
24096;SDS011;12275;48.550;12.132;2022-08-21T00:03:35;14.32;;;9.20;;
24096;SDS011;12275;48.550;12.132;2022-08-21T00:06:02;22.30;;;8.48;;
24096;SDS011;12275;48.550;12.132;2022-08-21T00:08:28;13.93;;;9.15;;
24096;SDS011;12275;48.550;12.132;2022-08-21T00:10:53;8.82;;;7.70;;
24096;SDS011;12275;48.550;12.132;2022-08-21T00:13:19;11.32;;;7.68;;
24096;SDS011;12275;48.550;12.132;2022-08-21T00:15:46;9.77;;;8.75;;
24096;SDS011;12275;48.550;12.132;2022-08-21T00:18:12;15.68;;;7.72;;
24096;SDS011;12275;48.550;12.132;2022-08-21T00:20:39;11.00;;;8.55;;
24096;SDS011;12275;48.550;12.132;2022-08-21T00:23:06;11.38;;;8.80;;
24096;SDS011;12275;48.550;12.132;2022-08-21T00:25:32;9.90;;;8.73;;
24096;SDS011;12275;48.550;12.132;2022-08-21T00:27:59;13.35;;;8.35;;
24096;SDS011;12275;48.550;12.132;2022-08-21T00:30:25;14.55;;;8.02;;
24096;SDS011;12275;48.550;12.132;2022-08-21T00:32:52;15.45;;;9.13;;
24096;SDS011;12275;48.550;12.132;2022-08-21T00:35:20;10.15;;;7.80;;
24096;SDS011;12275;48.550;12.132;2022-08-21T00:37:54;10.27;;;8.50;;
24096;SDS011;12275;48.550;12.132;2022-08-21T00:40:23;14.43;;;8.40;;
24096;SDS011;12275;48.550;12.132;2022-08-21T00:42:54;13.37;;;8.40;;
24096;SDS011;12275;48.550;12.132;2022-08-21T00:45:20;17.20;;;8.48;;
24096;SDS011;12275;48.550;12.132;2022-08-21T00:47:47;13.73;;;9.13;;
24096;SDS011;12275;48.550;12.132;2022-08-21T00:50:14;11.75;;;7.95;;
24096;SDS011;12275;48.550;12.132;2022-08-21T00:52:40;11.75;;;8.50;;
24096;SDS011;12275;48.550;12.132;2022-08-21T00:55:07;9.32;;;8.40;;
24096;SDS011;12275;48.550;12.132;2022-08-21T00:57:40;9.98;;;8.00;;
24096;SDS011;12275;48.550;12.132;2022-08-21T01:00:12;10.05;;;8.60;;
24096;SDS011;12275;48.550;12.132;2022-08-21T01:02:41;12.75;;;9.52;;
24096;SDS011;12275;48.550;12.132;2022-08-21T01:05:08;12.68;;;8.18;;
24096;SDS011;12275;48.550;12.132;2022-08-21T01:07:34;12.50;;;8.75;;
24096;SDS011;12275;48.550;12.132;2022-08-21T01:10:01;9.98;;;8.00;;
24096;SDS011;12275;48.550;12.132;2022-08-21T01:12:28;12.20;;;8.48;;
24096;SDS011;12275;48.550;12.132;2022-08-21T01:14:53;13.90;;;8.48;;
24096;SDS011;12275;48.550;12.132;2022-08-21T01:17:19;13.68;;;7.55;;
24096;SDS011;12275;48.550;12.132;2022-08-21T01:19:46;12.90;;;7.53;;
24096;SDS011;12275;48.550;12.132;2022-08-21T01:22:12;9.52;;;7.82;;
24096;SDS011;12275;48.550;12.132;2022-08-21T01:24:39;11.18;;;7.07;;
24096;SDS011;12275;48.550;12.132;2022-08-21T01:27:05;10.05;;;6.90;;
24096;SDS011;12275;48.550;12.132;2022-08-21T01:29:45;7.93;;;7.13;;
24096;SDS011;12275;48.550;12.132;2022-08-21T01:32:18;10.75;;;6.70;;
24096;SDS011;12275;48.550;12.132;2022-08-21T01:34:45;12.75;;;6.68;;
24096;SDS011;12275;48.550;12.132;2022-08-21T01:37:12;11.15;;;6.95;;
24096;SDS011;12275;48.550;12.132;2022-08-21T01:39:39;12.27;;;6.93;;
24096;SDS011;12275;48.550;12.132;2022-08-21T01:42:05;9.82;;;6.38;;
24096;SDS011;12275;48.550;12.132;2022-08-21T01:44:31;7.72;;;5.90;;
24096;SDS011;12275;48.550;12.132;2022-08-21T01:46:58;8.90;;;6.30;;
24096;SDS011;12275;48.550;12.132;2022-08-21T01:49:25;11.80;;;5.88;;
24096;SDS011;12275;48.550;12.132;2022-08-21T01:51:51;10.02;;;5.68;;
24096;SDS011;12275;48.550;12.132;2022-08-21T01:54:17;8.77;;;5.38;;
24096;SDS011;12275;48.550;12.132;2022-08-21T01:56:45;5.78;;;5.28;;
24096;SDS011;12275;48.550;12.132;2022-08-21T01:59:12;10.75;;;5.97;;
24096;SDS011;12275;48.550;12.132;2022-08-21T02:01:39;7.78;;;6.32;;
24096;SDS011;12275;48.550;12.132;2022-08-21T02:04:05;7.10;;;5.82;;
24096;SDS011;12275;48.550;12.132;2022-08-21T02:06:32;6.40;;;5.80;;
24096;SDS011;12275;48.550;12.132;2022-08-21T02:08:59;8.85;;;5.93;;
24096;SDS011;12275;48.550;12.132;2022-08-21T02:11:25;6.80;;;6.05;;
24096;SDS011;12275;48.550;12.132;2022-08-21T02:13:51;7.10;;;5.10;;
24096;SDS011;12275;48.550;12.132;2022-08-21T02:16:17;6.78;;;5.43;;
24096;SDS011;12275;48.550;12.132;2022-08-21T02:18:43;6.05;;;4.85;;
24096;SDS011;12275;48.550;12.132;2022-08-21T02:21:09;6.13;;;5.22;;
24096;SDS011;12275;48.550;12.132;2022-08-21T02:23:35;6.30;;;5.55;;
24096;SDS011;12275;48.550;12.132;2022-08-21T02:26:01;5.40;;;4.90;;
24096;SDS011;12275;48.550;12.132;2022-08-21T02:28:28;5.93;;;4.85;;
24096;SDS011;12275;48.550;12.132;2022-08-21T02:30:54;9.20;;;5.32;;
24096;SDS011;12275;48.550;12.132;2022-08-21T02:33:21;6.05;;;5.07;;
24096;SDS011;12275;48.550;12.132;2022-08-21T02:35:48;6.82;;;4.53;;
24096;SDS011;12275;48.550;12.132;2022-08-21T02:38:16;9.02;;;4.88;;
24096;SDS011;12275;48.550;12.132;2022-08-21T02:40:46;5.00;;;4.60;;
24096;SDS011;12275;48.550;12.132;2022-08-21T02:43:13;6.50;;;5.18;;
24096;SDS011;12275;48.550;12.132;2022-08-21T02:45:40;7.63;;;4.65;;
24096;SDS011;12275;48.550;12.132;2022-08-21T02:48:08;7.63;;;5.10;;
24096;SDS011;12275;48.550;12.132;2022-08-21T02:50:36;4.88;;;4.38;;
24096;SDS011;12275;48.550;12.132;2022-08-21T02:53:05;9.23;;;4.57;;
24096;SDS011;12275;48.550;12.132;2022-08-21T02:55:32;5.18;;;4.60;;
24096;SDS011;12275;48.550;12.132;2022-08-21T02:58:01;5.30;;;4.80;;
24096;SDS011;12275;48.550;12.132;2022-08-21T03:00:28;8.43;;;4.35;;
24096;SDS011;12275;48.550;12.132;2022-08-21T03:02:55;4.80;;;4.32;;
24096;SDS011;12275;48.550;12.132;2022-08-21T03:05:21;5.40;;;4.80;;
24096;SDS011;12275;48.550;12.132;2022-08-21T03:07:48;6.47;;;4.25;;
24096;SDS011;12275;48.550;12.132;2022-08-21T03:10:14;6.60;;;4.18;;
24096;SDS011;12275;48.550;12.132;2022-08-21T03:12:41;5.55;;;4.20;;
24096;SDS011;12275;48.550;12.132;2022-08-21T03:15:08;4.72;;;4.32;;
24096;SDS011;12275;48.550;12.132;2022-08-21T03:17:35;8.30;;;4.28;;
24096;SDS011;12275;48.550;12.132;2022-08-21T03:20:02;5.90;;;3.85;;
24096;SDS011;12275;48.550;12.132;2022-08-21T03:22:30;8.70;;;4.68;;
24096;SDS011;12275;48.550;12.132;2022-08-21T03:24:57;6.97;;;4.30;;
24096;SDS011;12275;48.550;12.132;2022-08-21T03:27:23;4.90;;;4.07;;
24096;SDS011;12275;48.550;12.132;2022-08-21T03:29:49;6.07;;;4.30;;
24096;SDS011;12275;48.550;12.132;2022-08-21T03:32:15;3.95;;;3.63;;
24096;SDS011;12275;48.550;12.132;2022-08-21T03:34:40;4.10;;;3.80;;
24096;SDS011;12275;48.550;12.132;2022-08-21T03:37:07;9.45;;;4.70;;
24096;SDS011;12275;48.550;12.132;2022-08-21T03:39:33;6.72;;;4.32;;
24096;SDS011;12275;48.550;12.132;2022-08-21T03:41:59;4.40;;;4.00;;
24096;SDS011;12275;48.550;12.132;2022-08-21T03:44:26;6.22;;;4.72;;
24096;SDS011;12275;48.550;12.132;2022-08-21T03:46:54;5.00;;;4.43;;
24096;SDS011;12275;48.550;12.132;2022-08-21T03:49:20;4.80;;;4.18;;
24096;SDS011;12275;48.550;12.132;2022-08-21T03:51:46;4.93;;;4.30;;
24096;SDS011;12275;48.550;12.132;2022-08-21T03:54:12;4.85;;;4.13;;
24096;SDS011;12275;48.550;12.132;2022-08-21T03:56:38;6.97;;;3.88;;
24096;SDS011;12275;48.550;12.132;2022-08-21T03:59:04;5.78;;;4.07;;
24096;SDS011;12275;48.550;12.132;2022-08-21T04:01:30;5.13;;;3.80;;
24096;SDS011;12275;48.550;12.132;2022-08-21T04:03:56;6.90;;;3.88;;
24096;SDS011;12275;48.550;12.132;2022-08-21T04:06:22;6.90;;;4.10;;
24096;SDS011;12275;48.550;12.132;2022-08-21T04:08:48;5.25;;;4.65;;
24096;SDS011;12275;48.550;12.132;2022-08-21T04:11:13;7.47;;;4.50;;
24096;SDS011;12275;48.550;12.132;2022-08-21T04:13:40;4.90;;;4.20;;
24096;SDS011;12275;48.550;12.132;2022-08-21T04:16:06;5.20;;;4.50;;
24096;SDS011;12275;48.550;12.132;2022-08-21T04:18:33;6.72;;;4.57;;
24096;SDS011;12275;48.550;12.132;2022-08-21T04:20:58;5.50;;;4.90;;
24096;SDS011;12275;48.550;12.132;2022-08-21T04:23:26;4.53;;;4.10;;
24096;SDS011;12275;48.550;12.132;2022-08-21T04:25:53;6.03;;;4.57;;
24096;SDS011;12275;48.550;12.132;2022-08-21T04:28:21;4.45;;;3.80;;
24096;SDS011;12275;48.550;12.132;2022-08-21T04:30:47;5.03;;;4.50;;
24096;SDS011;12275;48.550;12.132;2022-08-21T04:33:14;5.38;;;4.30;;
24096;SDS011;12275;48.550;12.132;2022-08-21T04:35:39;5.38;;;4.85;;
24096;SDS011;12275;48.550;12.132;2022-08-21T04:38:06;4.80;;;4.35;;
24096;SDS011;12275;48.550;12.132;2022-08-21T04:40:32;5.60;;;5.07;;
24096;SDS011;12275;48.550;12.132;2022-08-21T04:43:00;8.85;;;4.72;;
24096;SDS011;12275;48.550;12.132;2022-08-21T04:45:33;8.07;;;4.88;;
24096;SDS011;12275;48.550;12.132;2022-08-21T04:48:00;7.05;;;4.68;;
24096;SDS011;12275;48.550;12.132;2022-08-21T04:50:38;5.85;;;4.55;;
24096;SDS011;12275;48.550;12.132;2022-08-21T04:53:14;6.32;;;4.13;;
24096;SDS011;12275;48.550;12.132;2022-08-21T04:55:49;7.40;;;4.47;;
24096;SDS011;12275;48.550;12.132;2022-08-21T04:58:18;6.70;;;4.60;;
24096;SDS011;12275;48.550;12.132;2022-08-21T05:00:47;7.15;;;4.50;;
24096;SDS011;12275;48.550;12.132;2022-08-21T05:03:13;9.18;;;4.70;;
24096;SDS011;12275;48.550;12.132;2022-08-21T05:05:41;6.38;;;5.15;;
24096;SDS011;12275;48.550;12.132;2022-08-21T05:08:08;7.55;;;4.85;;
24096;SDS011;12275;48.550;12.132;2022-08-21T05:10:37;6.97;;;4.80;;
24096;SDS011;12275;48.550;12.132;2022-08-21T05:13:02;5.75;;;4.43;;
24096;SDS011;12275;48.550;12.132;2022-08-21T05:15:30;8.27;;;4.80;;
24096;SDS011;12275;48.550;12.132;2022-08-21T05:17:56;7.93;;;5.10;;
24096;SDS011;12275;48.550;12.132;2022-08-21T05:20:22;7.88;;;4.90;;
24096;SDS011;12275;48.550;12.132;2022-08-21T05:22:48;14.50;;;5.40;;
24096;SDS011;12275;48.550;12.132;2022-08-21T05:25:14;7.70;;;4.82;;
24096;SDS011;12275;48.550;12.132;2022-08-21T05:27:39;6.65;;;5.00;;
24096;SDS011;12275;48.550;12.132;2022-08-21T05:30:06;5.75;;;5.18;;
24096;SDS011;12275;48.550;12.132;2022-08-21T05:32:42;5.93;;;5.05;;
24096;SDS011;12275;48.550;12.132;2022-08-21T05:35:09;6.63;;;4.22;;
24096;SDS011;12275;48.550;12.132;2022-08-21T05:37:36;5.03;;;4.63;;
24096;SDS011;12275;48.550;12.132;2022-08-21T05:40:02;5.35;;;4.68;;
24096;SDS011;12275;48.550;12.132;2022-08-21T05:42:29;5.75;;;4.57;;
24096;SDS011;12275;48.550;12.132;2022-08-21T05:44:55;5.65;;;5.10;;
24096;SDS011;12275;48.550;12.132;2022-08-21T05:47:21;7.90;;;4.28;;
24096;SDS011;12275;48.550;12.132;2022-08-21T05:49:46;5.15;;;4.65;;
24096;SDS011;12275;48.550;12.132;2022-08-21T05:52:17;5.75;;;5.25;;
24096;SDS011;12275;48.550;12.132;2022-08-21T05:54:44;8.00;;;5.10;;
24096;SDS011;12275;48.550;12.132;2022-08-21T05:57:10;12.55;;;5.43;;
24096;SDS011;12275;48.550;12.132;2022-08-21T05:59:36;5.38;;;4.88;;
24096;SDS011;12275;48.550;12.132;2022-08-21T06:02:02;5.47;;;4.90;;
24096;SDS011;12275;48.550;12.132;2022-08-21T06:04:28;6.97;;;5.00;;
24096;SDS011;12275;48.550;12.132;2022-08-21T06:06:54;4.63;;;4.25;;
24096;SDS011;12275;48.550;12.132;2022-08-21T06:09:20;9.90;;;4.95;;
24096;SDS011;12275;48.550;12.132;2022-08-21T06:11:46;7.35;;;5.28;;
24096;SDS011;12275;48.550;12.132;2022-08-21T06:14:13;8.27;;;5.05;;
24096;SDS011;12275;48.550;12.132;2022-08-21T06:16:39;7.75;;;5.80;;
24096;SDS011;12275;48.550;12.132;2022-08-21T06:19:05;7.45;;;5.63;;
24096;SDS011;12275;48.550;12.132;2022-08-21T06:21:31;10.38;;;5.63;;
24096;SDS011;12275;48.550;12.132;2022-08-21T06:23:56;6.10;;;5.50;;
24096;SDS011;12275;48.550;12.132;2022-08-21T06:26:22;9.20;;;5.03;;
24096;SDS011;12275;48.550;12.132;2022-08-21T06:28:49;8.75;;;6.65;;
24096;SDS011;12275;48.550;12.132;2022-08-21T06:31:16;9.18;;;5.60;;
24096;SDS011;12275;48.550;12.132;2022-08-21T06:33:44;6.22;;;5.60;;
24096;SDS011;12275;48.550;12.132;2022-08-21T06:36:10;10.93;;;6.15;;
24096;SDS011;12275;48.550;12.132;2022-08-21T06:38:36;10.18;;;6.78;;
24096;SDS011;12275;48.550;12.132;2022-08-21T06:41:02;13.82;;;6.40;;
24096;SDS011;12275;48.550;12.132;2022-08-21T06:43:28;10.55;;;6.38;;
24096;SDS011;12275;48.550;12.132;2022-08-21T06:45:54;7.63;;;6.32;;
24096;SDS011;12275;48.550;12.132;2022-08-21T06:48:20;9.43;;;6.13;;
24096;SDS011;12275;48.550;12.132;2022-08-21T06:50:46;6.10;;;5.60;;
24096;SDS011;12275;48.550;12.132;2022-08-21T06:53:14;6.63;;;6.03;;
24096;SDS011;12275;48.550;12.132;2022-08-21T06:55:41;14.25;;;6.00;;
24096;SDS011;12275;48.550;12.132;2022-08-21T06:58:07;9.10;;;6.70;;
24096;SDS011;12275;48.550;12.132;2022-08-21T07:00:41;6.97;;;6.25;;
24096;SDS011;12275;48.550;12.132;2022-08-21T07:03:16;7.18;;;6.15;;
24096;SDS011;12275;48.550;12.132;2022-08-21T07:05:47;7.03;;;6.35;;
24096;SDS011;12275;48.550;12.132;2022-08-21T07:08:12;12.55;;;9.05;;
24096;SDS011;12275;48.550;12.132;2022-08-21T07:10:38;11.80;;;10.77;;
24096;SDS011;12275;48.550;12.132;2022-08-21T07:13:04;15.70;;;14.05;;
24096;SDS011;12275;48.550;12.132;2022-08-21T07:15:30;13.63;;;12.23;;
24096;SDS011;12275;48.550;12.132;2022-08-21T07:17:57;21.83;;;13.55;;
24096;SDS011;12275;48.550;12.132;2022-08-21T07:20:26;16.13;;;14.05;;
24096;SDS011;12275;48.550;12.132;2022-08-21T07:22:54;16.88;;;15.07;;
24096;SDS011;12275;48.550;12.132;2022-08-21T07:25:21;14.07;;;12.57;;
24096;SDS011;12275;48.550;12.132;2022-08-21T07:27:47;15.85;;;14.20;;
24096;SDS011;12275;48.550;12.132;2022-08-21T07:30:13;16.90;;;15.10;;
24096;SDS011;12275;48.550;12.132;2022-08-21T07:32:39;18.45;;;15.07;;
24096;SDS011;12275;48.550;12.132;2022-08-21T07:35:05;18.27;;;14.60;;
24096;SDS011;12275;48.550;12.132;2022-08-21T07:37:31;15.93;;;14.32;;
24096;SDS011;12275;48.550;12.132;2022-08-21T07:39:56;18.80;;;15.77;;
24096;SDS011;12275;48.550;12.132;2022-08-21T07:42:22;17.45;;;15.75;;
24096;SDS011;12275;48.550;12.132;2022-08-21T07:44:48;17.67;;;15.88;;
24096;SDS011;12275;48.550;12.132;2022-08-21T07:47:14;18.17;;;15.95;;
24096;SDS011;12275;48.550;12.132;2022-08-21T07:49:39;16.55;;;14.95;;
24096;SDS011;12275;48.550;12.132;2022-08-21T07:52:05;18.42;;;16.52;;
24096;SDS011;12275;48.550;12.132;2022-08-21T07:54:31;18.15;;;16.25;;
24096;SDS011;12275;48.550;12.132;2022-08-21T07:56:57;18.23;;;16.40;;
24096;SDS011;12275;48.550;12.132;2022-08-21T07:59:22;17.38;;;15.63;;
24096;SDS011;12275;48.550;12.132;2022-08-21T08:01:48;18.35;;;16.50;;
24096;SDS011;12275;48.550;12.132;2022-08-21T08:04:14;19.17;;;17.38;;
24096;SDS011;12275;48.550;12.132;2022-08-21T08:06:40;23.10;;;17.90;;
24096;SDS011;12275;48.550;12.132;2022-08-21T08:09:06;19.10;;;17.08;;
24096;SDS011;12275;48.550;12.132;2022-08-21T08:11:32;19.38;;;17.20;;
24096;SDS011;12275;48.550;12.132;2022-08-21T08:13:58;18.90;;;17.00;;
24096;SDS011;12275;48.550;12.132;2022-08-21T08:16:24;21.50;;;17.90;;
24096;SDS011;12275;48.550;12.132;2022-08-21T08:18:51;21.98;;;16.65;;
24096;SDS011;12275;48.550;12.132;2022-08-21T08:21:18;18.33;;;16.45;;
24096;SDS011;12275;48.550;12.132;2022-08-21T08:23:46;17.33;;;15.60;;
24096;SDS011;12275;48.550;12.132;2022-08-21T08:26:12;17.00;;;15.40;;
24096;SDS011;12275;48.550;12.132;2022-08-21T08:28:41;16.70;;;15.10;;
24096;SDS011;12275;48.550;12.132;2022-08-21T08:31:07;16.63;;;15.02;;
24096;SDS011;12275;48.550;12.132;2022-08-21T08:33:34;21.10;;;16.77;;
24096;SDS011;12275;48.550;12.132;2022-08-21T08:36:00;16.45;;;14.77;;
24096;SDS011;12275;48.550;12.132;2022-08-21T08:38:26;18.25;;;16.35;;
24096;SDS011;12275;48.550;12.132;2022-08-21T08:41:03;17.90;;;16.30;;
24096;SDS011;12275;48.550;12.132;2022-08-21T08:43:38;19.45;;;17.65;;
24096;SDS011;12275;48.550;12.132;2022-08-21T08:46:11;20.45;;;18.33;;
24096;SDS011;12275;48.550;12.132;2022-08-21T08:48:47;19.52;;;17.65;;
24096;SDS011;12275;48.550;12.132;2022-08-21T08:51:21;19.60;;;17.80;;
24096;SDS011;12275;48.550;12.132;2022-08-21T08:53:56;19.33;;;17.45;;
24096;SDS011;12275;48.550;12.132;2022-08-21T08:56:34;18.30;;;16.48;;
24096;SDS011;12275;48.550;12.132;2022-08-21T08:59:02;17.23;;;15.25;;
24096;SDS011;12275;48.550;12.132;2022-08-21T09:01:44;17.35;;;15.70;;
24096;SDS011;12275;48.550;12.132;2022-08-21T09:04:10;16.35;;;14.93;;
24096;SDS011;12275;48.550;12.132;2022-08-21T09:17:16;16.98;;;15.55;;
24096;SDS011;12275;48.550;12.132;2022-08-21T09:23:05;18.27;;;16.35;;
24096;SDS011;12275;48.550;12.132;2022-08-21T09:25:50;19.60;;;17.90;;
24096;SDS011;12275;48.550;12.132;2022-08-21T09:28:34;18.50;;;16.73;;
24096;SDS011;12275;48.550;12.132;2022-08-21T09:31:07;17.52;;;15.55;;
24096;SDS011;12275;48.550;12.132;2022-08-21T09:34:10;16.17;;;14.63;;
24096;SDS011;12275;48.550;12.132;2022-08-21T09:36:40;16.27;;;14.68;;
24096;SDS011;12275;48.550;12.132;2022-08-21T09:39:13;16.63;;;14.82;;
24096;SDS011;12275;48.550;12.132;2022-08-21T09:41:54;19.75;;;17.65;;
24096;SDS011;12275;48.550;12.132;2022-08-21T09:44:26;19.50;;;17.48;;
24096;SDS011;12275;48.550;12.132;2022-08-21T09:46:54;15.23;;;13.75;;
24096;SDS011;12275;48.550;12.132;2022-08-21T09:49:52;16.48;;;15.05;;
24096;SDS011;12275;48.550;12.132;2022-08-21T09:52:18;17.95;;;16.15;;
24096;SDS011;12275;48.550;12.132;2022-08-21T09:54:48;16.63;;;15.05;;
24096;SDS011;12275;48.550;12.132;2022-08-21T09:57:23;15.48;;;14.07;;
24096;SDS011;12275;48.550;12.132;2022-08-21T10:00:10;14.00;;;12.60;;
24096;SDS011;12275;48.550;12.132;2022-08-21T10:02:46;14.30;;;13.00;;
24096;SDS011;12275;48.550;12.132;2022-08-21T10:05:23;15.95;;;14.45;;
24096;SDS011;12275;48.550;12.132;2022-08-21T10:07:50;15.60;;;13.88;;
24096;SDS011;12275;48.550;12.132;2022-08-21T10:10:18;15.40;;;14.00;;
24096;SDS011;12275;48.550;12.132;2022-08-21T10:13:02;14.37;;;13.07;;
24096;SDS011;12275;48.550;12.132;2022-08-21T10:15:38;15.13;;;13.73;;
24096;SDS011;12275;48.550;12.132;2022-08-21T10:18:28;15.55;;;14.05;;
24096;SDS011;12275;48.550;12.132;2022-08-21T10:29:38;13.85;;;12.75;;
24096;SDS011;12275;48.550;12.132;2022-08-21T10:32:02;14.68;;;13.38;;
24096;SDS011;12275;48.550;12.132;2022-08-21T10:34:57;15.40;;;14.10;;
24096;SDS011;12275;48.550;12.132;2022-08-21T10:45:30;17.00;;;15.55;;
24096;SDS011;12275;48.550;12.132;2022-08-21T10:48:02;16.25;;;14.73;;
24096;SDS011;12275;48.550;12.132;2022-08-21T10:55:54;14.52;;;13.43;;
24096;SDS011;12275;48.550;12.132;2022-08-21T10:59:09;13.68;;;12.57;;
24096;SDS011;12275;48.550;12.132;2022-08-21T11:01:27;14.98;;;13.70;;
24096;SDS011;12275;48.550;12.132;2022-08-21T11:03:55;17.05;;;15.55;;
24096;SDS011;12275;48.550;12.132;2022-08-21T11:06:50;16.45;;;14.88;;
24096;SDS011;12275;48.550;12.132;2022-08-21T11:09:22;17.70;;;16.17;;
24096;SDS011;12275;48.550;12.132;2022-08-21T11:12:03;16.70;;;15.20;;
24096;SDS011;12275;48.550;12.132;2022-08-21T11:17:25;15.80;;;14.45;;
24096;SDS011;12275;48.550;12.132;2022-08-21T11:22:57;15.07;;;13.68;;
24096;SDS011;12275;48.550;12.132;2022-08-21T11:25:37;16.20;;;14.57;;
24096;SDS011;12275;48.550;12.132;2022-08-21T11:28:25;17.15;;;15.45;;
24096;SDS011;12275;48.550;12.132;2022-08-21T11:33:48;16.10;;;14.65;;
24096;SDS011;12275;48.550;12.132;2022-08-21T11:39:06;16.02;;;14.60;;
24096;SDS011;12275;48.550;12.132;2022-08-21T11:41:38;16.27;;;14.77;;
24096;SDS011;12275;48.550;12.132;2022-08-21T11:49:53;14.40;;;13.10;;
24096;SDS011;12275;48.550;12.132;2022-08-21T11:54:55;14.77;;;13.48;;
24096;SDS011;12275;48.550;12.132;2022-08-21T11:57:30;14.25;;;12.95;;
24096;SDS011;12275;48.550;12.132;2022-08-21T12:00:00;13.10;;;11.93;;
24096;SDS011;12275;48.550;12.132;2022-08-21T12:02:33;13.02;;;11.82;;
24096;SDS011;12275;48.550;12.132;2022-08-21T12:05:09;13.95;;;12.15;;
24096;SDS011;12275;48.550;12.132;2022-08-21T12:07:47;10.57;;;9.68;;
24096;SDS011;12275;48.550;12.132;2022-08-21T12:10:14;10.93;;;9.93;;
24096;SDS011;12275;48.550;12.132;2022-08-21T12:18:30;13.68;;;12.50;;
24096;SDS011;12275;48.550;12.132;2022-08-21T12:21:01;14.40;;;12.98;;
24096;SDS011;12275;48.550;12.132;2022-08-21T12:23:31;14.13;;;13.02;;
24096;SDS011;12275;48.550;12.132;2022-08-21T12:28:44;13.00;;;11.90;;
24096;SDS011;12275;48.550;12.132;2022-08-21T12:31:17;14.25;;;12.95;;
24096;SDS011;12275;48.550;12.132;2022-08-21T12:33:50;15.00;;;12.93;;
24096;SDS011;12275;48.550;12.132;2022-08-21T12:36:21;12.57;;;11.50;;
24096;SDS011;12275;48.550;12.132;2022-08-21T12:38:55;12.27;;;11.10;;
24096;SDS011;12275;48.550;12.132;2022-08-21T12:41:31;11.65;;;9.98;;
24096;SDS011;12275;48.550;12.132;2022-08-21T12:44:26;8.15;;;7.55;;
24096;SDS011;12275;48.550;12.132;2022-08-21T12:47:15;8.38;;;7.63;;
24096;SDS011;12275;48.550;12.132;2022-08-21T12:50:11;8.95;;;8.15;;
24096;SDS011;12275;48.550;12.132;2022-08-21T12:52:48;8.55;;;7.68;;
24096;SDS011;12275;48.550;12.132;2022-08-21T12:55:28;7.80;;;7.25;;
24096;SDS011;12275;48.550;12.132;2022-08-21T12:57:55;9.38;;;8.48;;
24096;SDS011;12275;48.550;12.132;2022-08-21T13:00:21;9.52;;;8.77;;
24096;SDS011;12275;48.550;12.132;2022-08-21T13:02:49;10.43;;;9.50;;
24096;SDS011;12275;48.550;12.132;2022-08-21T13:07:58;6.00;;;5.53;;
24096;SDS011;12275;48.550;12.132;2022-08-21T13:10:29;7.25;;;5.68;;
24096;SDS011;12275;48.550;12.132;2022-08-21T13:12:58;6.95;;;6.38;;
24096;SDS011;12275;48.550;12.132;2022-08-21T13:15:28;7.47;;;6.78;;
24096;SDS011;12275;48.550;12.132;2022-08-21T13:17:57;7.50;;;6.90;;
24096;SDS011;12275;48.550;12.132;2022-08-21T13:20:48;6.90;;;6.30;;
24096;SDS011;12275;48.550;12.132;2022-08-21T13:23:26;6.38;;;5.70;;
24096;SDS011;12275;48.550;12.132;2022-08-21T13:25:53;7.22;;;6.07;;
24096;SDS011;12275;48.550;12.132;2022-08-21T13:28:20;6.53;;;6.03;;
24096;SDS011;12275;48.550;12.132;2022-08-21T13:30:50;6.07;;;5.43;;
24096;SDS011;12275;48.550;12.132;2022-08-21T13:33:19;6.90;;;6.15;;
24096;SDS011;12275;48.550;12.132;2022-08-21T13:35:50;6.05;;;5.55;;
24096;SDS011;12275;48.550;12.132;2022-08-21T13:38:22;4.82;;;4.50;;
24096;SDS011;12275;48.550;12.132;2022-08-21T13:40:59;3.92;;;3.47;;
24096;SDS011;12275;48.550;12.132;2022-08-21T13:43:36;6.40;;;3.45;;
24096;SDS011;12275;48.550;12.132;2022-08-21T13:46:06;4.85;;;4.00;;
24096;SDS011;12275;48.550;12.132;2022-08-21T13:48:35;4.05;;;3.70;;
24096;SDS011;12275;48.550;12.132;2022-08-21T13:51:04;7.45;;;4.00;;
24096;SDS011;12275;48.550;12.132;2022-08-21T13:55:58;4.32;;;3.78;;
24096;SDS011;12275;48.550;12.132;2022-08-21T13:58:44;4.35;;;3.95;;
24096;SDS011;12275;48.550;12.132;2022-08-21T14:01:18;6.85;;;3.95;;
24096;SDS011;12275;48.550;12.132;2022-08-21T14:03:48;5.93;;;3.95;;
24096;SDS011;12275;48.550;12.132;2022-08-21T14:06:17;4.03;;;3.67;;
24096;SDS011;12275;48.550;12.132;2022-08-21T14:08:55;4.30;;;3.53;;
24096;SDS011;12275;48.550;12.132;2022-08-21T14:11:24;3.67;;;3.47;;
24096;SDS011;12275;48.550;12.132;2022-08-21T14:13:55;5.25;;;3.60;;
24096;SDS011;12275;48.550;12.132;2022-08-21T14:16:28;6.75;;;4.18;;
24096;SDS011;12275;48.550;12.132;2022-08-21T14:19:09;3.85;;;3.42;;
24096;SDS011;12275;48.550;12.132;2022-08-21T14:21:42;4.47;;;4.05;;
24096;SDS011;12275;48.550;12.132;2022-08-21T14:24:13;8.43;;;4.30;;
24096;SDS011;12275;48.550;12.132;2022-08-21T14:26:49;9.35;;;4.85;;
24096;SDS011;12275;48.550;12.132;2022-08-21T14:29:18;11.02;;;4.97;;
24096;SDS011;12275;48.550;12.132;2022-08-21T14:31:53;6.03;;;3.75;;
24096;SDS011;12275;48.550;12.132;2022-08-21T14:34:22;22.42;;;5.97;;
24096;SDS011;12275;48.550;12.132;2022-08-21T14:36:51;7.65;;;3.97;;
24096;SDS011;12275;48.550;12.132;2022-08-21T14:39:17;6.70;;;3.97;;
24096;SDS011;12275;48.550;12.132;2022-08-21T14:41:44;6.80;;;3.95;;
24096;SDS011;12275;48.550;12.132;2022-08-21T14:44:15;19.08;;;5.93;;
24096;SDS011;12275;48.550;12.132;2022-08-21T14:46:43;10.73;;;4.00;;
24096;SDS011;12275;48.550;12.132;2022-08-21T14:49:09;8.55;;;4.35;;
24096;SDS011;12275;48.550;12.132;2022-08-21T14:51:36;4.13;;;3.40;;
24096;SDS011;12275;48.550;12.132;2022-08-21T14:54:03;4.30;;;3.90;;
24096;SDS011;12275;48.550;12.132;2022-08-21T14:56:30;4.88;;;3.92;;
24096;SDS011;12275;48.550;12.132;2022-08-21T14:58:56;4.50;;;3.45;;
24096;SDS011;12275;48.550;12.132;2022-08-21T15:01:29;6.82;;;3.42;;
24096;SDS011;12275;48.550;12.132;2022-08-21T15:03:56;3.63;;;3.33;;
24096;SDS011;12275;48.550;12.132;2022-08-21T15:06:22;3.78;;;3.47;;
24096;SDS011;12275;48.550;12.132;2022-08-21T15:08:47;7.93;;;3.97;;
24096;SDS011;12275;48.550;12.132;2022-08-21T15:11:16;5.30;;;3.45;;
24096;SDS011;12275;48.550;12.132;2022-08-21T15:13:44;3.90;;;3.60;;
24096;SDS011;12275;48.550;12.132;2022-08-21T15:16:10;12.05;;;4.63;;
24096;SDS011;12275;48.550;12.132;2022-08-21T15:18:36;13.50;;;5.22;;
24096;SDS011;12275;48.550;12.132;2022-08-21T15:21:03;17.95;;;5.50;;
24096;SDS011;12275;48.550;12.132;2022-08-21T15:23:29;7.72;;;4.60;;
24096;SDS011;12275;48.550;12.132;2022-08-21T15:25:54;6.55;;;3.80;;
24096;SDS011;12275;48.550;12.132;2022-08-21T15:28:22;16.45;;;4.50;;
24096;SDS011;12275;48.550;12.132;2022-08-21T15:30:48;9.60;;;4.60;;
24096;SDS011;12275;48.550;12.132;2022-08-21T15:33:15;15.95;;;5.43;;
24096;SDS011;12275;48.550;12.132;2022-08-21T15:35:42;14.88;;;4.63;;
24096;SDS011;12275;48.550;12.132;2022-08-21T15:38:08;8.25;;;4.70;;
24096;SDS011;12275;48.550;12.132;2022-08-21T15:40:35;10.45;;;4.07;;
24096;SDS011;12275;48.550;12.132;2022-08-21T15:43:02;9.35;;;4.43;;
24096;SDS011;12275;48.550;12.132;2022-08-21T15:45:31;18.08;;;4.50;;